sensor_id;sensor_type;location;lat;lon;timestamp;P1;durP1;ratioP1;P2;durP2;ratioP2
74789;SDS011;63318;52.406;13.416;2023-05-24T00:02:16;9.90;;;2.70;;
74789;SDS011;63318;52.406;13.416;2023-05-24T00:04:44;10.00;;;2.30;;
74789;SDS011;63318;52.406;13.416;2023-05-24T00:07:12;8.70;;;2.30;;
74789;SDS011;63318;52.406;13.416;2023-05-24T00:09:40;9.70;;;2.70;;
74789;SDS011;63318;52.406;13.416;2023-05-24T00:12:09;10.00;;;2.90;;
74789;SDS011;63318;52.406;13.416;2023-05-24T00:14:38;9.90;;;2.50;;
74789;SDS011;63318;52.406;13.416;2023-05-24T00:17:06;17.80;;;2.90;;
74789;SDS011;63318;52.406;13.416;2023-05-24T00:19:35;5.80;;;2.00;;
74789;SDS011;63318;52.406;13.416;2023-05-24T00:22:03;6.90;;;2.10;;
74789;SDS011;63318;52.406;13.416;2023-05-24T00:24:32;8.90;;;2.20;;
74789;SDS011;63318;52.406;13.416;2023-05-24T00:27:00;9.30;;;1.90;;
74789;SDS011;63318;52.406;13.416;2023-05-24T00:29:28;8.80;;;1.90;;
74789;SDS011;63318;52.406;13.416;2023-05-24T00:31:56;8.80;;;2.60;;
74789;SDS011;63318;52.406;13.416;2023-05-24T00:34:25;8.80;;;1.90;;
74789;SDS011;63318;52.406;13.416;2023-05-24T00:36:53;13.60;;;2.60;;
74789;SDS011;63318;52.406;13.416;2023-05-24T00:39:21;13.20;;;2.50;;
74789;SDS011;63318;52.406;13.416;2023-05-24T00:41:50;13.50;;;2.20;;
74789;SDS011;63318;52.406;13.416;2023-05-24T00:44:18;14.90;;;2.40;;
74789;SDS011;63318;52.406;13.416;2023-05-24T00:46:46;12.40;;;2.60;;
74789;SDS011;63318;52.406;13.416;2023-05-24T00:49:14;13.40;;;2.50;;
74789;SDS011;63318;52.406;13.416;2023-05-24T00:51:44;12.10;;;3.00;;
74789;SDS011;63318;52.406;13.416;2023-05-24T00:54:13;8.90;;;3.30;;
74789;SDS011;63318;52.406;13.416;2023-05-24T00:56:41;10.50;;;2.10;;
74789;SDS011;63318;52.406;13.416;2023-05-24T00:59:10;8.30;;;2.40;;
74789;SDS011;63318;52.406;13.416;2023-05-24T01:01:39;11.40;;;2.40;;
74789;SDS011;63318;52.406;13.416;2023-05-24T01:04:07;8.00;;;2.60;;
74789;SDS011;63318;52.406;13.416;2023-05-24T01:06:37;11.10;;;2.90;;
74789;SDS011;63318;52.406;13.416;2023-05-24T01:09:22;6.50;;;2.20;;
74789;SDS011;63318;52.406;13.416;2023-05-24T01:12:05;13.90;;;3.20;;
74789;SDS011;63318;52.406;13.416;2023-05-24T01:14:44;8.40;;;2.40;;
74789;SDS011;63318;52.406;13.416;2023-05-24T01:17:22;10.10;;;2.70;;
74789;SDS011;63318;52.406;13.416;2023-05-24T01:19:55;10.00;;;3.10;;
74789;SDS011;63318;52.406;13.416;2023-05-24T01:25:29;10.10;;;2.80;;
74789;SDS011;63318;52.406;13.416;2023-05-24T01:28:10;12.80;;;2.70;;
74789;SDS011;63318;52.406;13.416;2023-05-24T01:30:40;8.90;;;2.50;;
74789;SDS011;63318;52.406;13.416;2023-05-24T01:33:10;8.10;;;2.50;;
74789;SDS011;63318;52.406;13.416;2023-05-24T01:35:38;11.00;;;2.80;;
74789;SDS011;63318;52.406;13.416;2023-05-24T01:38:07;9.40;;;2.50;;
74789;SDS011;63318;52.406;13.416;2023-05-24T01:40:36;8.00;;;2.50;;
74789;SDS011;63318;52.406;13.416;2023-05-24T01:43:09;11.70;;;2.20;;
74789;SDS011;63318;52.406;13.416;2023-05-24T01:45:45;10.90;;;2.70;;
74789;SDS011;63318;52.406;13.416;2023-05-24T01:48:22;8.50;;;2.30;;
74789;SDS011;63318;52.406;13.416;2023-05-24T01:50:57;10.00;;;2.30;;
74789;SDS011;63318;52.406;13.416;2023-05-24T01:53:29;13.60;;;2.50;;
74789;SDS011;63318;52.406;13.416;2023-05-24T01:56:00;11.00;;;2.50;;
74789;SDS011;63318;52.406;13.416;2023-05-24T01:58:31;10.40;;;2.30;;
74789;SDS011;63318;52.406;13.416;2023-05-24T02:01:01;9.70;;;2.50;;
74789;SDS011;63318;52.406;13.416;2023-05-24T02:03:30;9.40;;;2.20;;
74789;SDS011;63318;52.406;13.416;2023-05-24T02:05:58;7.00;;;2.40;;
74789;SDS011;63318;52.406;13.416;2023-05-24T02:08:27;10.00;;;2.20;;
74789;SDS011;63318;52.406;13.416;2023-05-24T02:10:55;7.00;;;2.00;;
74789;SDS011;63318;52.406;13.416;2023-05-24T02:13:23;11.90;;;2.20;;
74789;SDS011;63318;52.406;13.416;2023-05-24T02:15:52;10.80;;;2.60;;
74789;SDS011;63318;52.406;13.416;2023-05-24T02:18:20;10.50;;;2.20;;
74789;SDS011;63318;52.406;13.416;2023-05-24T02:20:49;10.90;;;2.90;;
74789;SDS011;63318;52.406;13.416;2023-05-24T02:23:17;8.70;;;3.20;;
74789;SDS011;63318;52.406;13.416;2023-05-24T02:25:45;14.10;;;2.30;;
74789;SDS011;63318;52.406;13.416;2023-05-24T02:28:14;11.30;;;2.30;;
74789;SDS011;63318;52.406;13.416;2023-05-24T02:30:42;8.50;;;2.20;;
74789;SDS011;63318;52.406;13.416;2023-05-24T02:33:10;10.00;;;2.30;;
74789;SDS011;63318;52.406;13.416;2023-05-24T02:35:39;7.90;;;2.40;;
74789;SDS011;63318;52.406;13.416;2023-05-24T02:38:07;9.40;;;2.00;;
74789;SDS011;63318;52.406;13.416;2023-05-24T02:40:35;14.30;;;4.30;;
74789;SDS011;63318;52.406;13.416;2023-05-24T02:43:03;8.80;;;2.10;;
74789;SDS011;63318;52.406;13.416;2023-05-24T02:45:32;9.30;;;2.20;;
74789;SDS011;63318;52.406;13.416;2023-05-24T02:48:01;10.00;;;2.10;;
74789;SDS011;63318;52.406;13.416;2023-05-24T02:50:29;6.80;;;2.10;;
74789;SDS011;63318;52.406;13.416;2023-05-24T02:52:58;8.60;;;2.50;;
74789;SDS011;63318;52.406;13.416;2023-05-24T02:55:26;9.40;;;2.00;;
74789;SDS011;63318;52.406;13.416;2023-05-24T02:57:54;8.80;;;2.00;;
74789;SDS011;63318;52.406;13.416;2023-05-24T03:00:22;9.40;;;2.40;;
74789;SDS011;63318;52.406;13.416;2023-05-24T03:02:51;14.10;;;2.30;;
74789;SDS011;63318;52.406;13.416;2023-05-24T03:05:19;12.10;;;2.30;;
74789;SDS011;63318;52.406;13.416;2023-05-24T03:07:47;15.90;;;3.60;;
74789;SDS011;63318;52.406;13.416;2023-05-24T03:10:16;9.60;;;2.10;;
74789;SDS011;63318;52.406;13.416;2023-05-24T03:12:45;10.30;;;2.60;;
74789;SDS011;63318;52.406;13.416;2023-05-24T03:15:13;9.80;;;2.30;;
74789;SDS011;63318;52.406;13.416;2023-05-24T03:17:41;12.60;;;2.50;;
74789;SDS011;63318;52.406;13.416;2023-05-24T03:20:10;8.10;;;1.90;;
74789;SDS011;63318;52.406;13.416;2023-05-24T03:22:39;14.10;;;3.30;;
74789;SDS011;63318;52.406;13.416;2023-05-24T03:25:07;10.20;;;2.30;;
74789;SDS011;63318;52.406;13.416;2023-05-24T03:27:36;11.70;;;2.10;;
74789;SDS011;63318;52.406;13.416;2023-05-24T03:30:05;14.10;;;2.70;;
74789;SDS011;63318;52.406;13.416;2023-05-24T03:32:35;7.60;;;1.80;;
74789;SDS011;63318;52.406;13.416;2023-05-24T03:35:04;11.70;;;3.10;;
74789;SDS011;63318;52.406;13.416;2023-05-24T03:37:33;10.70;;;2.50;;
74789;SDS011;63318;52.406;13.416;2023-05-24T03:40:02;12.00;;;2.80;;
74789;SDS011;63318;52.406;13.416;2023-05-24T03:42:32;8.70;;;2.20;;
74789;SDS011;63318;52.406;13.416;2023-05-24T03:45:00;11.40;;;2.60;;
74789;SDS011;63318;52.406;13.416;2023-05-24T03:47:30;11.20;;;2.80;;
74789;SDS011;63318;52.406;13.416;2023-05-24T03:49:59;9.10;;;2.10;;
74789;SDS011;63318;52.406;13.416;2023-05-24T03:52:27;11.90;;;2.60;;
74789;SDS011;63318;52.406;13.416;2023-05-24T03:54:56;12.90;;;2.60;;
74789;SDS011;63318;52.406;13.416;2023-05-24T03:57:25;9.80;;;2.20;;
74789;SDS011;63318;52.406;13.416;2023-05-24T03:59:53;14.40;;;2.20;;
74789;SDS011;63318;52.406;13.416;2023-05-24T04:02:21;13.90;;;2.50;;
74789;SDS011;63318;52.406;13.416;2023-05-24T04:04:50;10.40;;;2.30;;
74789;SDS011;63318;52.406;13.416;2023-05-24T04:07:19;11.80;;;2.40;;
74789;SDS011;63318;52.406;13.416;2023-05-24T04:09:47;8.70;;;2.50;;
74789;SDS011;63318;52.406;13.416;2023-05-24T04:12:16;10.90;;;2.20;;
74789;SDS011;63318;52.406;13.416;2023-05-24T04:14:44;11.60;;;2.20;;
74789;SDS011;63318;52.406;13.416;2023-05-24T04:17:13;9.60;;;2.40;;
74789;SDS011;63318;52.406;13.416;2023-05-24T04:19:41;11.70;;;2.30;;
74789;SDS011;63318;52.406;13.416;2023-05-24T04:22:10;16.40;;;3.00;;
74789;SDS011;63318;52.406;13.416;2023-05-24T04:24:38;11.60;;;2.70;;
74789;SDS011;63318;52.406;13.416;2023-05-24T04:27:06;10.40;;;2.30;;
74789;SDS011;63318;52.406;13.416;2023-05-24T04:29:34;9.80;;;2.60;;
74789;SDS011;63318;52.406;13.416;2023-05-24T04:32:05;12.90;;;2.20;;
74789;SDS011;63318;52.406;13.416;2023-05-24T04:34:34;15.20;;;2.90;;
74789;SDS011;63318;52.406;13.416;2023-05-24T04:37:03;10.90;;;2.60;;
74789;SDS011;63318;52.406;13.416;2023-05-24T04:39:32;10.60;;;2.40;;
74789;SDS011;63318;52.406;13.416;2023-05-24T04:42:00;8.20;;;2.50;;
74789;SDS011;63318;52.406;13.416;2023-05-24T04:44:28;11.20;;;2.50;;
74789;SDS011;63318;52.406;13.416;2023-05-24T04:46:57;9.60;;;2.70;;
74789;SDS011;63318;52.406;13.416;2023-05-24T04:49:25;11.20;;;2.60;;
74789;SDS011;63318;52.406;13.416;2023-05-24T04:51:53;9.30;;;2.50;;
74789;SDS011;63318;52.406;13.416;2023-05-24T04:54:22;13.00;;;3.30;;
74789;SDS011;63318;52.406;13.416;2023-05-24T04:56:50;14.40;;;2.40;;
74789;SDS011;63318;52.406;13.416;2023-05-24T04:59:18;10.20;;;2.50;;
74789;SDS011;63318;52.406;13.416;2023-05-24T05:01:47;11.90;;;2.50;;
74789;SDS011;63318;52.406;13.416;2023-05-24T05:04:15;10.70;;;2.40;;
74789;SDS011;63318;52.406;13.416;2023-05-24T05:06:44;8.50;;;2.40;;
74789;SDS011;63318;52.406;13.416;2023-05-24T05:09:13;12.00;;;2.20;;
74789;SDS011;63318;52.406;13.416;2023-05-24T05:11:41;14.30;;;2.60;;
74789;SDS011;63318;52.406;13.416;2023-05-24T05:14:11;12.80;;;2.60;;
74789;SDS011;63318;52.406;13.416;2023-05-24T05:16:40;15.00;;;3.40;;
74789;SDS011;63318;52.406;13.416;2023-05-24T05:19:09;11.30;;;3.00;;
74789;SDS011;63318;52.406;13.416;2023-05-24T05:21:38;13.20;;;3.40;;
74789;SDS011;63318;52.406;13.416;2023-05-24T05:24:07;14.20;;;3.00;;
74789;SDS011;63318;52.406;13.416;2023-05-24T05:26:35;17.30;;;2.90;;
74789;SDS011;63318;52.406;13.416;2023-05-24T05:29:04;11.60;;;2.60;;
74789;SDS011;63318;52.406;13.416;2023-05-24T05:31:32;15.40;;;2.90;;
74789;SDS011;63318;52.406;13.416;2023-05-24T05:34:01;7.70;;;2.60;;
74789;SDS011;63318;52.406;13.416;2023-05-24T05:36:29;11.70;;;2.70;;
74789;SDS011;63318;52.406;13.416;2023-05-24T05:38:57;13.30;;;2.60;;
74789;SDS011;63318;52.406;13.416;2023-05-24T05:41:26;14.70;;;2.90;;
74789;SDS011;63318;52.406;13.416;2023-05-24T05:43:54;16.50;;;3.00;;
74789;SDS011;63318;52.406;13.416;2023-05-24T05:46:22;13.30;;;3.10;;
74789;SDS011;63318;52.406;13.416;2023-05-24T05:48:51;16.40;;;3.60;;
74789;SDS011;63318;52.406;13.416;2023-05-24T05:51:19;13.60;;;2.90;;
74789;SDS011;63318;52.406;13.416;2023-05-24T05:53:47;17.10;;;3.00;;
74789;SDS011;63318;52.406;13.416;2023-05-24T05:56:16;12.50;;;2.70;;
74789;SDS011;63318;52.406;13.416;2023-05-24T05:58:45;13.70;;;3.00;;
74789;SDS011;63318;52.406;13.416;2023-05-24T06:01:13;12.80;;;2.90;;
74789;SDS011;63318;52.406;13.416;2023-05-24T06:03:42;20.90;;;3.70;;
74789;SDS011;63318;52.406;13.416;2023-05-24T06:06:12;12.20;;;2.40;;
74789;SDS011;63318;52.406;13.416;2023-05-24T06:08:40;13.00;;;3.00;;
74789;SDS011;63318;52.406;13.416;2023-05-24T06:11:08;17.90;;;3.30;;
74789;SDS011;63318;52.406;13.416;2023-05-24T06:13:37;13.00;;;2.60;;
74789;SDS011;63318;52.406;13.416;2023-05-24T06:16:05;19.40;;;2.80;;
74789;SDS011;63318;52.406;13.416;2023-05-24T06:18:33;16.10;;;3.30;;
74789;SDS011;63318;52.406;13.416;2023-05-24T06:21:02;15.10;;;3.20;;
74789;SDS011;63318;52.406;13.416;2023-05-24T06:23:31;13.70;;;3.10;;
74789;SDS011;63318;52.406;13.416;2023-05-24T06:25:59;13.60;;;3.70;;
74789;SDS011;63318;52.406;13.416;2023-05-24T06:28:27;21.40;;;3.70;;
74789;SDS011;63318;52.406;13.416;2023-05-24T06:30:56;15.70;;;3.40;;
74789;SDS011;63318;52.406;13.416;2023-05-24T06:33:24;16.90;;;3.10;;
74789;SDS011;63318;52.406;13.416;2023-05-24T06:35:53;14.30;;;3.00;;
74789;SDS011;63318;52.406;13.416;2023-05-24T06:38:21;13.10;;;3.40;;
74789;SDS011;63318;52.406;13.416;2023-05-24T06:40:50;12.50;;;2.90;;
74789;SDS011;63318;52.406;13.416;2023-05-24T06:43:19;17.00;;;3.60;;
74789;SDS011;63318;52.406;13.416;2023-05-24T06:45:47;20.00;;;3.20;;
74789;SDS011;63318;52.406;13.416;2023-05-24T06:48:15;15.80;;;2.90;;
74789;SDS011;63318;52.406;13.416;2023-05-24T06:50:44;14.60;;;3.10;;
74789;SDS011;63318;52.406;13.416;2023-05-24T06:53:12;16.90;;;3.20;;
74789;SDS011;63318;52.406;13.416;2023-05-24T06:55:41;15.20;;;3.10;;
74789;SDS011;63318;52.406;13.416;2023-05-24T06:58:09;16.40;;;3.80;;
74789;SDS011;63318;52.406;13.416;2023-05-24T07:00:38;12.60;;;3.00;;
74789;SDS011;63318;52.406;13.416;2023-05-24T07:03:07;17.70;;;2.80;;
74789;SDS011;63318;52.406;13.416;2023-05-24T07:05:36;17.00;;;3.10;;
74789;SDS011;63318;52.406;13.416;2023-05-24T07:08:04;16.70;;;3.70;;
74789;SDS011;63318;52.406;13.416;2023-05-24T07:10:33;15.70;;;3.00;;
74789;SDS011;63318;52.406;13.416;2023-05-24T07:13:01;16.50;;;3.10;;
74789;SDS011;63318;52.406;13.416;2023-05-24T07:15:30;15.30;;;2.90;;
74789;SDS011;63318;52.406;13.416;2023-05-24T07:17:58;17.20;;;3.50;;
74789;SDS011;63318;52.406;13.416;2023-05-24T07:20:26;20.70;;;3.80;;
74789;SDS011;63318;52.406;13.416;2023-05-24T07:22:55;10.00;;;3.20;;
74789;SDS011;63318;52.406;13.416;2023-05-24T07:25:23;15.40;;;3.30;;
74789;SDS011;63318;52.406;13.416;2023-05-24T07:27:52;18.50;;;3.90;;
74789;SDS011;63318;52.406;13.416;2023-05-24T07:30:20;13.00;;;2.90;;
74789;SDS011;63318;52.406;13.416;2023-05-24T07:32:49;19.20;;;3.70;;
74789;SDS011;63318;52.406;13.416;2023-05-24T07:35:18;17.30;;;4.10;;
74789;SDS011;63318;52.406;13.416;2023-05-24T07:37:48;19.10;;;3.70;;
74789;SDS011;63318;52.406;13.416;2023-05-24T07:40:16;12.40;;;3.10;;
74789;SDS011;63318;52.406;13.416;2023-05-24T07:42:45;12.10;;;3.20;;
74789;SDS011;63318;52.406;13.416;2023-05-24T07:45:13;15.30;;;3.50;;
74789;SDS011;63318;52.406;13.416;2023-05-24T07:47:41;18.30;;;3.30;;
74789;SDS011;63318;52.406;13.416;2023-05-24T07:50:10;14.60;;;3.00;;
74789;SDS011;63318;52.406;13.416;2023-05-24T07:52:38;14.40;;;3.30;;
74789;SDS011;63318;52.406;13.416;2023-05-24T07:55:07;9.90;;;3.10;;
74789;SDS011;63318;52.406;13.416;2023-05-24T07:57:36;15.50;;;3.40;;
74789;SDS011;63318;52.406;13.416;2023-05-24T08:00:05;16.20;;;3.90;;
74789;SDS011;63318;52.406;13.416;2023-05-24T08:02:35;17.40;;;3.30;;
74789;SDS011;63318;52.406;13.416;2023-05-24T08:05:04;13.30;;;3.20;;
74789;SDS011;63318;52.406;13.416;2023-05-24T08:07:33;10.10;;;3.20;;
74789;SDS011;63318;52.406;13.416;2023-05-24T08:10:01;13.70;;;3.20;;
74789;SDS011;63318;52.406;13.416;2023-05-24T08:12:30;17.40;;;3.10;;
74789;SDS011;63318;52.406;13.416;2023-05-24T08:14:58;16.30;;;3.30;;
74789;SDS011;63318;52.406;13.416;2023-05-24T08:17:27;16.20;;;3.30;;
74789;SDS011;63318;52.406;13.416;2023-05-24T08:19:56;14.40;;;2.80;;
74789;SDS011;63318;52.406;13.416;2023-05-24T08:22:24;12.70;;;3.50;;
74789;SDS011;63318;52.406;13.416;2023-05-24T08:24:52;13.20;;;2.80;;
74789;SDS011;63318;52.406;13.416;2023-05-24T08:27:21;10.70;;;2.80;;
74789;SDS011;63318;52.406;13.416;2023-05-24T08:29:49;8.90;;;2.90;;
74789;SDS011;63318;52.406;13.416;2023-05-24T08:32:17;20.90;;;3.90;;
74789;SDS011;63318;52.406;13.416;2023-05-24T08:34:46;12.60;;;3.60;;
74789;SDS011;63318;52.406;13.416;2023-05-24T08:37:14;12.00;;;2.90;;
74789;SDS011;63318;52.406;13.416;2023-05-24T08:39:43;15.30;;;3.40;;
74789;SDS011;63318;52.406;13.416;2023-05-24T08:42:12;13.50;;;3.10;;
74789;SDS011;63318;52.406;13.416;2023-05-24T08:44:44;15.30;;;3.40;;
74789;SDS011;63318;52.406;13.416;2023-05-24T08:47:23;17.70;;;3.30;;
74789;SDS011;63318;52.406;13.416;2023-05-24T08:49:54;15.50;;;3.40;;
74789;SDS011;63318;52.406;13.416;2023-05-24T08:52:23;15.00;;;3.20;;
74789;SDS011;63318;52.406;13.416;2023-05-24T08:54:53;17.00;;;3.60;;
74789;SDS011;63318;52.406;13.416;2023-05-24T08:57:26;15.00;;;3.50;;
74789;SDS011;63318;52.406;13.416;2023-05-24T08:59:56;11.20;;;3.60;;
74789;SDS011;63318;52.406;13.416;2023-05-24T09:02:25;10.30;;;3.00;;
74789;SDS011;63318;52.406;13.416;2023-05-24T09:04:55;16.90;;;3.40;;
74789;SDS011;63318;52.406;13.416;2023-05-24T09:07:25;12.90;;;3.10;;
74789;SDS011;63318;52.406;13.416;2023-05-24T09:09:58;13.60;;;3.30;;
74789;SDS011;63318;52.406;13.416;2023-05-24T09:12:30;12.50;;;3.00;;
74789;SDS011;63318;52.406;13.416;2023-05-24T09:14:59;13.00;;;3.20;;
74789;SDS011;63318;52.406;13.416;2023-05-24T09:17:29;11.80;;;2.90;;
74789;SDS011;63318;52.406;13.416;2023-05-24T09:19:59;14.20;;;3.20;;
74789;SDS011;63318;52.406;13.416;2023-05-24T09:22:28;12.80;;;2.90;;
74789;SDS011;63318;52.406;13.416;2023-05-24T09:24:58;13.30;;;2.90;;
74789;SDS011;63318;52.406;13.416;2023-05-24T09:27:27;10.20;;;2.70;;
74789;SDS011;63318;52.406;13.416;2023-05-24T09:29:58;9.00;;;2.90;;
74789;SDS011;63318;52.406;13.416;2023-05-24T09:32:26;12.90;;;2.90;;
74789;SDS011;63318;52.406;13.416;2023-05-24T09:34:56;9.70;;;2.10;;
74789;SDS011;63318;52.406;13.416;2023-05-24T09:37:25;9.30;;;2.20;;
74789;SDS011;63318;52.406;13.416;2023-05-24T09:39:54;9.10;;;2.50;;
74789;SDS011;63318;52.406;13.416;2023-05-24T09:42:24;8.20;;;2.20;;
74789;SDS011;63318;52.406;13.416;2023-05-24T09:44:59;12.50;;;2.70;;
74789;SDS011;63318;52.406;13.416;2023-05-24T09:47:30;10.80;;;2.80;;
74789;SDS011;63318;52.406;13.416;2023-05-24T09:49:59;8.50;;;2.30;;
74789;SDS011;63318;52.406;13.416;2023-05-24T09:52:29;6.30;;;2.10;;
74789;SDS011;63318;52.406;13.416;2023-05-24T09:54:57;6.80;;;2.50;;
74789;SDS011;63318;52.406;13.416;2023-05-24T09:57:25;10.20;;;2.70;;
74789;SDS011;63318;52.406;13.416;2023-05-24T09:59:54;12.50;;;3.00;;
74789;SDS011;63318;52.406;13.416;2023-05-24T10:02:24;9.40;;;2.30;;
74789;SDS011;63318;52.406;13.416;2023-05-24T10:04:58;7.30;;;1.70;;
74789;SDS011;63318;52.406;13.416;2023-05-24T10:07:26;8.70;;;1.90;;
74789;SDS011;63318;52.406;13.416;2023-05-24T10:09:55;9.50;;;2.40;;
74789;SDS011;63318;52.406;13.416;2023-05-24T10:12:24;10.90;;;2.40;;
74789;SDS011;63318;52.406;13.416;2023-05-24T10:14:53;12.20;;;2.90;;
74789;SDS011;63318;52.406;13.416;2023-05-24T10:17:22;10.20;;;2.10;;
74789;SDS011;63318;52.406;13.416;2023-05-24T10:19:51;8.80;;;2.00;;
74789;SDS011;63318;52.406;13.416;2023-05-24T10:22:19;10.40;;;2.80;;
74789;SDS011;63318;52.406;13.416;2023-05-24T10:24:50;9.40;;;2.30;;
74789;SDS011;63318;52.406;13.416;2023-05-24T10:27:22;7.50;;;2.40;;
74789;SDS011;63318;52.406;13.416;2023-05-24T10:29:55;9.50;;;2.50;;
74789;SDS011;63318;52.406;13.416;2023-05-24T10:32:30;4.80;;;1.70;;
74789;SDS011;63318;52.406;13.416;2023-05-24T10:35:01;10.60;;;2.00;;
74789;SDS011;63318;52.406;13.416;2023-05-24T10:37:31;8.30;;;2.10;;
74789;SDS011;63318;52.406;13.416;2023-05-24T10:40:00;9.90;;;2.00;;
74789;SDS011;63318;52.406;13.416;2023-05-24T10:42:31;9.00;;;1.80;;
74789;SDS011;63318;52.406;13.416;2023-05-24T10:45:00;7.40;;;1.80;;
74789;SDS011;63318;52.406;13.416;2023-05-24T10:47:56;8.50;;;2.10;;
74789;SDS011;63318;52.406;13.416;2023-05-24T10:50:41;8.20;;;2.20;;
74789;SDS011;63318;52.406;13.416;2023-05-24T10:53:13;11.10;;;2.60;;
74789;SDS011;63318;52.406;13.416;2023-05-24T10:55:54;10.70;;;2.00;;
74789;SDS011;63318;52.406;13.416;2023-05-24T10:58:27;9.90;;;2.30;;
74789;SDS011;63318;52.406;13.416;2023-05-24T11:01:25;7.80;;;1.80;;
74789;SDS011;63318;52.406;13.416;2023-05-24T11:03:54;8.10;;;1.90;;
74789;SDS011;63318;52.406;13.416;2023-05-24T11:06:45;8.70;;;2.30;;
74789;SDS011;63318;52.406;13.416;2023-05-24T11:09:14;8.50;;;2.10;;
74789;SDS011;63318;52.406;13.416;2023-05-24T11:11:47;12.20;;;2.30;;
74789;SDS011;63318;52.406;13.416;2023-05-24T11:14:22;10.60;;;2.40;;
74789;SDS011;63318;52.406;13.416;2023-05-24T11:16:53;12.30;;;2.50;;
74789;SDS011;63318;52.406;13.416;2023-05-24T11:19:22;8.60;;;1.90;;
74789;SDS011;63318;52.406;13.416;2023-05-24T11:21:56;6.70;;;2.40;;
74789;SDS011;63318;52.406;13.416;2023-05-24T11:24:25;9.10;;;2.50;;
74789;SDS011;63318;52.406;13.416;2023-05-24T11:26:53;7.30;;;2.20;;
74789;SDS011;63318;52.406;13.416;2023-05-24T11:29:22;9.40;;;2.10;;
74789;SDS011;63318;52.406;13.416;2023-05-24T11:31:51;8.00;;;2.30;;
74789;SDS011;63318;52.406;13.416;2023-05-24T11:34:22;8.60;;;2.10;;
74789;SDS011;63318;52.406;13.416;2023-05-24T11:36:50;12.00;;;2.60;;
74789;SDS011;63318;52.406;13.416;2023-05-24T11:39:19;8.00;;;2.10;;
74789;SDS011;63318;52.406;13.416;2023-05-24T11:41:47;9.10;;;2.10;;
74789;SDS011;63318;52.406;13.416;2023-05-24T11:44:24;7.50;;;1.90;;
74789;SDS011;63318;52.406;13.416;2023-05-24T11:47:00;7.80;;;1.80;;
74789;SDS011;63318;52.406;13.416;2023-05-24T11:49:30;6.50;;;1.80;;
74789;SDS011;63318;52.406;13.416;2023-05-24T11:52:00;7.90;;;2.30;;
74789;SDS011;63318;52.406;13.416;2023-05-24T11:54:28;6.90;;;2.00;;
74789;SDS011;63318;52.406;13.416;2023-05-24T11:56:57;6.80;;;2.00;;
74789;SDS011;63318;52.406;13.416;2023-05-24T11:59:26;9.40;;;2.10;;
74789;SDS011;63318;52.406;13.416;2023-05-24T12:01:58;8.00;;;1.70;;
74789;SDS011;63318;52.406;13.416;2023-05-24T12:04:28;7.90;;;2.10;;
74789;SDS011;63318;52.406;13.416;2023-05-24T12:06:57;6.60;;;2.00;;
74789;SDS011;63318;52.406;13.416;2023-05-24T12:09:26;6.00;;;2.00;;
74789;SDS011;63318;52.406;13.416;2023-05-24T12:11:55;5.50;;;1.80;;
74789;SDS011;63318;52.406;13.416;2023-05-24T12:14:23;6.50;;;1.70;;
74789;SDS011;63318;52.406;13.416;2023-05-24T12:16:54;5.50;;;2.00;;
74789;SDS011;63318;52.406;13.416;2023-05-24T12:19:23;5.70;;;1.80;;
74789;SDS011;63318;52.406;13.416;2023-05-24T12:21:55;7.50;;;2.10;;
74789;SDS011;63318;52.406;13.416;2023-05-24T12:24:24;7.90;;;1.90;;
74789;SDS011;63318;52.406;13.416;2023-05-24T12:26:56;7.10;;;1.90;;
74789;SDS011;63318;52.406;13.416;2023-05-24T12:29:26;6.80;;;1.70;;
74789;SDS011;63318;52.406;13.416;2023-05-24T12:31:58;5.70;;;2.00;;
74789;SDS011;63318;52.406;13.416;2023-05-24T12:34:26;5.90;;;1.60;;
74789;SDS011;63318;52.406;13.416;2023-05-24T12:36:55;9.50;;;1.90;;
74789;SDS011;63318;52.406;13.416;2023-05-24T12:39:25;5.60;;;1.80;;
74789;SDS011;63318;52.406;13.416;2023-05-24T12:41:55;4.70;;;1.60;;
74789;SDS011;63318;52.406;13.416;2023-05-24T12:44:25;8.70;;;2.40;;
74789;SDS011;63318;52.406;13.416;2023-05-24T12:46:55;4.70;;;1.70;;
74789;SDS011;63318;52.406;13.416;2023-05-24T12:49:24;6.70;;;1.80;;
74789;SDS011;63318;52.406;13.416;2023-05-24T12:51:53;9.80;;;2.30;;
74789;SDS011;63318;52.406;13.416;2023-05-24T12:54:22;7.70;;;2.00;;
74789;SDS011;63318;52.406;13.416;2023-05-24T12:56:52;7.60;;;2.10;;
74789;SDS011;63318;52.406;13.416;2023-05-24T12:59:21;5.90;;;1.90;;
74789;SDS011;63318;52.406;13.416;2023-05-24T13:01:51;6.20;;;1.90;;
74789;SDS011;63318;52.406;13.416;2023-05-24T13:04:19;4.70;;;1.60;;
74789;SDS011;63318;52.406;13.416;2023-05-24T13:06:48;6.60;;;2.10;;
74789;SDS011;63318;52.406;13.416;2023-05-24T13:09:17;6.40;;;1.60;;
74789;SDS011;63318;52.406;13.416;2023-05-24T13:11:45;9.40;;;1.80;;
74789;SDS011;63318;52.406;13.416;2023-05-24T13:14:14;5.60;;;1.60;;
74789;SDS011;63318;52.406;13.416;2023-05-24T13:16:42;6.20;;;1.70;;
74789;SDS011;63318;52.406;13.416;2023-05-24T13:19:11;5.90;;;2.00;;
74789;SDS011;63318;52.406;13.416;2023-05-24T13:21:39;7.60;;;3.20;;
74789;SDS011;63318;52.406;13.416;2023-05-24T13:24:07;6.90;;;2.00;;
74789;SDS011;63318;52.406;13.416;2023-05-24T13:26:36;7.00;;;2.00;;
74789;SDS011;63318;52.406;13.416;2023-05-24T13:29:04;8.70;;;1.90;;
74789;SDS011;63318;52.406;13.416;2023-05-24T13:31:32;7.40;;;2.10;;
74789;SDS011;63318;52.406;13.416;2023-05-24T13:34:01;7.40;;;2.00;;
74789;SDS011;63318;52.406;13.416;2023-05-24T13:36:29;7.60;;;2.10;;
74789;SDS011;63318;52.406;13.416;2023-05-24T13:38:58;5.70;;;1.80;;
74789;SDS011;63318;52.406;13.416;2023-05-24T13:41:26;7.10;;;2.10;;
74789;SDS011;63318;52.406;13.416;2023-05-24T13:43:55;8.50;;;2.50;;
74789;SDS011;63318;52.406;13.416;2023-05-24T13:46:23;5.90;;;1.90;;
74789;SDS011;63318;52.406;13.416;2023-05-24T13:48:53;9.30;;;2.70;;
74789;SDS011;63318;52.406;13.416;2023-05-24T13:51:22;9.00;;;2.30;;
74789;SDS011;63318;52.406;13.416;2023-05-24T13:53:50;5.80;;;2.30;;
74789;SDS011;63318;52.406;13.416;2023-05-24T13:56:19;6.60;;;1.90;;
74789;SDS011;63318;52.406;13.416;2023-05-24T13:58:47;5.90;;;2.00;;
74789;SDS011;63318;52.406;13.416;2023-05-24T14:01:16;6.00;;;2.00;;
74789;SDS011;63318;52.406;13.416;2023-05-24T14:03:44;5.80;;;2.00;;
74789;SDS011;63318;52.406;13.416;2023-05-24T14:06:13;7.70;;;2.10;;
74789;SDS011;63318;52.406;13.416;2023-05-24T14:08:42;5.50;;;1.70;;
74789;SDS011;63318;52.406;13.416;2023-05-24T14:11:10;7.20;;;1.80;;
74789;SDS011;63318;52.406;13.416;2023-05-24T14:13:39;6.10;;;2.00;;
74789;SDS011;63318;52.406;13.416;2023-05-24T14:16:07;6.90;;;2.10;;
74789;SDS011;63318;52.406;13.416;2023-05-24T14:18:36;8.30;;;2.20;;
74789;SDS011;63318;52.406;13.416;2023-05-24T14:21:04;9.70;;;2.20;;
74789;SDS011;63318;52.406;13.416;2023-05-24T14:23:33;6.00;;;1.90;;
74789;SDS011;63318;52.406;13.416;2023-05-24T14:26:02;5.40;;;1.90;;
74789;SDS011;63318;52.406;13.416;2023-05-24T14:28:30;8.70;;;2.30;;
74789;SDS011;63318;52.406;13.416;2023-05-24T14:30:58;11.20;;;2.20;;
74789;SDS011;63318;52.406;13.416;2023-05-24T14:33:27;7.60;;;2.10;;
74789;SDS011;63318;52.406;13.416;2023-05-24T14:35:56;8.70;;;2.20;;
74789;SDS011;63318;52.406;13.416;2023-05-24T14:38:24;6.00;;;1.90;;
74789;SDS011;63318;52.406;13.416;2023-05-24T14:40:52;11.40;;;2.30;;
74789;SDS011;63318;52.406;13.416;2023-05-24T14:43:20;8.00;;;2.30;;
74789;SDS011;63318;52.406;13.416;2023-05-24T14:45:49;7.60;;;2.50;;